createdAt,value
2019-03-18T00:00:18.004Z,3.90
2019-03-18T00:02:46.584Z,3.90
2019-03-18T00:05:15.139Z,3.90
2019-03-18T00:07:43.620Z,3.80
2019-03-18T00:10:12.215Z,3.90
2019-03-18T00:12:40.744Z,3.90
2019-03-18T00:15:09.962Z,3.90
2019-03-18T00:17:38.463Z,3.90
2019-03-18T00:20:08.758Z,3.80
2019-03-18T00:22:37.309Z,3.90
2019-03-18T00:25:11.072Z,3.90
2019-03-18T00:27:39.533Z,3.90
2019-03-18T00:30:11.446Z,4.00
2019-03-18T00:32:39.909Z,3.90
2019-03-18T00:35:08.604Z,3.90
2019-03-18T00:37:37.081Z,3.90
2019-03-18T00:40:11.903Z,3.90
2019-03-18T00:42:40.360Z,3.90
2019-03-18T00:45:14.672Z,3.90
2019-03-18T00:47:39.482Z,3.90
2019-03-18T00:50:10.531Z,3.80
2019-03-18T00:52:39.128Z,3.90
2019-03-18T00:55:08.840Z,3.80
2019-03-18T00:57:37.368Z,3.80
2019-03-18T01:00:09.390Z,3.80
2019-03-18T01:02:37.868Z,3.70
2019-03-18T01:05:07.557Z,3.80
2019-03-18T01:07:36.072Z,3.80
2019-03-18T01:10:16.043Z,3.80
2019-03-18T01:12:44.591Z,3.80
2019-03-18T01:15:13.599Z,3.90
2019-03-18T01:17:42.131Z,3.90
2019-03-18T01:20:15.110Z,3.80
2019-03-18T01:22:43.698Z,3.80
2019-03-18T01:25:12.227Z,3.90
2019-03-18T01:27:41.479Z,3.80
2019-03-18T01:30:14.192Z,3.80
2019-03-18T01:32:42.634Z,3.70
2019-03-18T01:35:11.651Z,3.70
2019-03-18T01:37:40.144Z,3.70
2019-03-18T01:40:10.988Z,3.70
2019-03-18T01:42:39.633Z,3.70
2019-03-18T01:45:09.634Z,3.70
2019-03-18T01:47:38.155Z,3.70
2019-03-18T01:50:09.352Z,3.80
2019-03-18T01:52:37.804Z,3.80
2019-03-18T01:55:06.707Z,3.80
2019-03-18T01:57:35.283Z,3.80
2019-03-18T02:00:09.016Z,3.90
2019-03-18T02:02:37.472Z,3.90
2019-03-18T02:05:07.726Z,4.00
2019-03-18T02:07:36.234Z,4.00
2019-03-18T02:10:07.972Z,4.00
2019-03-18T02:12:36.468Z,4.10
2019-03-18T02:15:08.071Z,4.10
2019-03-18T02:17:36.664Z,4.10
2019-03-18T02:20:08.472Z,4.20
2019-03-18T02:22:36.953Z,4.20
2019-03-18T02:25:07.976Z,4.30
2019-03-18T02:27:36.579Z,4.30
2019-03-18T02:30:13.646Z,4.30
2019-03-18T02:32:42.168Z,4.40
2019-03-18T02:35:10.693Z,4.30
2019-03-18T02:37:39.212Z,4.30
2019-03-18T02:40:09.552Z,4.30
2019-03-18T02:42:38.105Z,4.30
2019-03-18T02:45:09.176Z,4.30
2019-03-18T02:47:37.669Z,4.30
2019-03-18T02:50:07.371Z,4.20
2019-03-18T02:52:35.915Z,4.20
2019-03-18T02:55:06.220Z,4.30
2019-03-18T02:57:34.673Z,4.30
2019-03-18T03:00:04.840Z,4.20
2019-03-18T03:02:33.405Z,4.30
2019-03-18T03:05:01.918Z,4.20
2019-03-18T03:07:30.401Z,4.20
2019-03-18T03:09:58.935Z,4.20
2019-03-18T03:12:27.477Z,4.30
2019-03-18T03:14:55.937Z,4.20
2019-03-18T03:17:24.490Z,4.30
2019-03-18T03:19:52.949Z,4.30
2019-03-18T03:22:21.404Z,4.30
2019-03-18T03:24:49.916Z,4.30
2019-03-18T03:27:18.445Z,4.30
2019-03-18T03:29:46.917Z,4.30
2019-03-18T03:32:15.391Z,4.30
2019-03-18T03:34:43.981Z,4.40
2019-03-18T03:37:12.441Z,4.40
2019-03-18T03:39:40.980Z,4.40
2019-03-18T03:42:09.453Z,4.40
2019-03-18T03:44:38.681Z,4.40
2019-03-18T03:47:07.184Z,4.40
2019-03-18T03:49:35.700Z,4.40
2019-03-18T03:52:04.173Z,4.40
2019-03-18T03:54:32.809Z,4.30
2019-03-18T03:57:01.332Z,4.30
2019-03-18T03:59:29.790Z,4.30
2019-03-18T04:01:59.132Z,4.30
2019-03-18T04:04:27.733Z,4.20
2019-03-18T04:06:56.426Z,4.20
2019-03-18T04:09:25.009Z,4.10
2019-03-18T04:11:53.469Z,4.10
2019-03-18T04:14:21.993Z,4.10
2019-03-18T04:17:01.815Z,4.10
2019-03-18T04:19:20.692Z,4.10
2019-03-18T04:21:50.933Z,4.10
2019-03-18T04:24:19.740Z,4.10
2019-03-18T04:26:48.202Z,4.10
2019-03-18T04:29:16.784Z,4.00
2019-03-18T04:31:45.284Z,4.00
2019-03-18T04:34:13.812Z,4.00
2019-03-18T04:36:42.267Z,4.00
2019-03-18T04:39:10.752Z,4.00
2019-03-18T04:41:39.209Z,4.00
2019-03-18T04:44:07.656Z,4.10
2019-03-18T04:46:36.225Z,4.10
2019-03-18T04:49:04.765Z,4.20
2019-03-18T04:51:33.247Z,4.20
2019-03-18T04:54:01.848Z,4.20
2019-03-18T04:56:30.315Z,4.20
2019-03-18T04:58:59.472Z,4.20
2019-03-18T05:01:27.955Z,4.20
2019-03-18T05:03:56.412Z,4.20
2019-03-18T05:06:24.891Z,4.20
2019-03-18T05:08:53.377Z,4.20
2019-03-18T05:11:21.845Z,4.10
2019-03-18T05:13:50.509Z,4.20
2019-03-18T05:16:19.335Z,4.10
2019-03-18T05:18:47.792Z,4.20
2019-03-18T05:21:16.317Z,4.20
2019-03-18T05:23:44.831Z,4.20
2019-03-18T05:26:13.370Z,4.20
2019-03-18T05:28:41.824Z,4.20
2019-03-18T05:31:11.844Z,4.20
2019-03-18T05:33:40.303Z,4.10
2019-03-18T05:36:08.772Z,4.10
2019-03-18T05:38:56.601Z,4.10
2019-03-18T05:41:25.067Z,4.10
2019-03-18T05:43:53.590Z,4.00
2019-03-18T05:46:22.068Z,4.00
2019-03-18T05:48:50.536Z,3.90
2019-03-18T05:51:18.996Z,3.90
2019-03-18T05:53:47.471Z,3.90
2019-03-18T05:56:15.998Z,3.90
2019-03-18T05:58:44.447Z,3.90
2019-03-18T06:01:12.988Z,3.90
2019-03-18T06:03:41.451Z,3.90
2019-03-18T06:06:09.920Z,3.90
2019-03-18T06:08:38.478Z,3.90
2019-03-18T06:11:07.016Z,3.90
2019-03-18T06:13:35.551Z,3.90
2019-03-18T06:16:04.067Z,3.90
2019-03-18T06:18:32.555Z,4.00
2019-03-18T06:21:01.021Z,4.10
2019-03-18T06:23:29.564Z,4.10
2019-03-18T06:25:58.021Z,4.20
2019-03-18T06:28:26.486Z,4.20
2019-03-18T06:30:54.958Z,4.20
2019-03-18T06:33:23.417Z,4.20
2019-03-18T06:35:51.925Z,4.10
2019-03-18T06:38:20.395Z,4.00
2019-03-18T06:40:48.897Z,4.00
2019-03-18T06:43:17.388Z,4.00
2019-03-18T06:45:45.986Z,4.00
2019-03-18T06:48:14.457Z,4.00
2019-03-18T06:50:42.976Z,4.00
2019-03-18T06:53:11.442Z,4.00
2019-03-18T06:55:39.897Z,4.10
2019-03-18T06:58:08.451Z,4.10
2019-03-18T07:00:36.904Z,4.00
2019-03-18T07:03:05.446Z,3.90
2019-03-18T07:05:35.485Z,3.80
2019-03-18T07:08:04.010Z,3.90
2019-03-18T07:10:32.452Z,3.90
2019-03-18T07:13:01.020Z,4.00
2019-03-18T07:15:29.477Z,4.00
2019-03-18T07:17:57.942Z,3.90
2019-03-18T07:20:26.421Z,3.80
2019-03-18T07:22:54.863Z,4.00
2019-03-18T07:25:23.345Z,4.20
2019-03-18T07:27:51.827Z,4.40
2019-03-18T07:30:20.449Z,4.60
2019-03-18T07:32:48.925Z,4.70
2019-03-18T07:35:17.548Z,5.00
2019-03-18T07:37:46.074Z,5.30
2019-03-18T07:40:15.483Z,5.60
2019-03-18T07:42:44.010Z,5.90
2019-03-18T07:45:15.762Z,6.30
2019-03-18T07:47:43.966Z,6.40
2019-03-18T07:50:13.964Z,6.20
2019-03-18T07:52:42.450Z,6.10
2019-03-18T07:55:10.987Z,5.70
2019-03-18T07:57:39.547Z,5.70
2019-03-18T08:00:15.170Z,5.60
2019-03-18T08:02:43.719Z,5.70
2019-03-18T08:05:12.384Z,5.80
2019-03-18T08:07:40.850Z,6.30
2019-03-18T08:10:12.064Z,6.60
2019-03-18T08:12:40.552Z,7.20
2019-03-18T08:15:10.345Z,7.40
2019-03-18T08:17:38.840Z,7.60
2019-03-18T08:20:09.843Z,7.60
2019-03-18T08:22:38.302Z,7.70
2019-03-18T08:25:08.312Z,8.00
2019-03-18T08:27:36.797Z,7.70
2019-03-18T08:30:14.314Z,8.20
2019-03-18T08:32:42.767Z,8.80
2019-03-18T08:35:11.233Z,9.10
2019-03-18T08:37:39.847Z,8.80
2019-03-18T08:40:10.445Z,8.20
2019-03-18T08:42:38.976Z,8.20
2019-03-18T08:45:10.349Z,9.10
2019-03-18T08:47:38.823Z,8.50
2019-03-18T08:50:11.930Z,8.60
2019-03-18T08:52:39.328Z,9.50
2019-03-18T08:55:09.625Z,8.60
2019-03-18T08:57:38.088Z,8.20
2019-03-18T09:00:17.368Z,8.00
2019-03-18T09:02:45.927Z,7.70
2019-03-18T09:05:14.510Z,7.60
2019-03-18T09:07:43.244Z,7.50
2019-03-18T09:10:14.420Z,8.00
2019-03-18T09:12:43.009Z,8.10
2019-03-18T09:15:12.419Z,8.20
2019-03-18T09:17:40.971Z,8.00
2019-03-18T09:20:16.572Z,7.80
2019-03-18T09:22:45.137Z,7.90
2019-03-18T09:25:13.814Z,8.20
2019-03-18T09:27:42.391Z,8.40
2019-03-18T09:30:18.899Z,8.60
2019-03-18T09:32:47.350Z,9.70
2019-03-18T09:35:15.932Z,9.50
2019-03-18T09:37:44.466Z,10.10
2019-03-18T09:40:16.486Z,10.40
2019-03-18T09:42:45.035Z,10.90
2019-03-18T09:45:15.161Z,11.40
2019-03-18T09:47:43.658Z,12.50
2019-03-18T09:50:12.618Z,12.60
2019-03-18T09:52:41.177Z,12.80
2019-03-18T09:55:10.252Z,13.10
2019-03-18T09:57:38.724Z,13.50
2019-03-18T10:00:12.223Z,14.10
2019-03-18T10:02:40.842Z,14.20
2019-03-18T10:05:09.471Z,14.30
2019-03-18T10:07:38.039Z,14.30
2019-03-18T10:10:09.332Z,13.80
2019-03-18T10:12:37.799Z,13.50
2019-03-18T10:15:09.472Z,13.40
2019-03-18T10:17:37.943Z,13.40
2019-03-18T10:20:07.960Z,13.60
2019-03-18T10:22:36.524Z,13.30
2019-03-18T10:25:06.649Z,13.40
2019-03-18T10:27:37.500Z,12.90
2019-03-18T10:30:10.746Z,12.60
2019-03-18T10:32:39.204Z,12.40
2019-03-18T10:35:08.216Z,12.50
2019-03-18T10:37:36.785Z,11.50
2019-03-18T10:40:13.115Z,11.10
2019-03-18T10:42:41.740Z,10.50
2019-03-18T10:45:13.953Z,10.40
2019-03-18T10:47:42.558Z,10.20
2019-03-18T10:50:13.163Z,9.90
2019-03-18T10:52:41.639Z,9.50
2019-03-18T10:55:10.609Z,9.40
2019-03-18T10:57:39.233Z,9.50
2019-03-18T11:00:18.019Z,9.70
2019-03-18T11:02:46.478Z,9.60
2019-03-18T11:05:15.381Z,9.30
2019-03-18T11:07:44.052Z,9.00
2019-03-18T11:10:14.731Z,8.90
2019-03-18T11:12:43.254Z,8.90
2019-03-18T11:15:13.880Z,8.70
2019-03-18T11:17:42.480Z,8.60
2019-03-18T11:20:13.737Z,8.30
2019-03-18T11:22:42.292Z,8.50
2019-03-18T11:25:12.691Z,8.60
2019-03-18T11:27:41.262Z,8.60
2019-03-18T11:30:15.558Z,8.80
2019-03-18T11:32:44.222Z,9.00
2019-03-18T11:35:12.909Z,8.90
2019-03-18T11:37:41.450Z,9.00
2019-03-18T11:40:18.171Z,9.10
2019-03-18T11:42:46.800Z,9.40
2019-03-18T11:45:16.503Z,10.20
2019-03-18T11:47:45.127Z,10.70
2019-03-18T11:50:18.372Z,10.60
2019-03-18T11:52:46.962Z,11.20
2019-03-18T11:55:21.192Z,12.10
2019-03-18T11:57:49.723Z,12.70
2019-03-18T12:00:19.764Z,13.00
2019-03-18T12:02:48.241Z,13.20
2019-03-18T12:05:22.438Z,12.70
2019-03-18T12:07:51.094Z,12.40
2019-03-18T12:10:20.972Z,13.10
2019-03-18T12:12:49.429Z,13.20
2019-03-18T12:15:21.602Z,13.50
2019-03-18T12:17:49.811Z,13.30
2019-03-18T12:20:24.385Z,12.70
2019-03-18T12:22:48.488Z,12.20
2019-03-18T12:25:16.989Z,12.60
2019-03-18T12:27:45.444Z,13.30
2019-03-18T12:30:22.183Z,13.20
2019-03-18T12:32:50.750Z,13.50
2019-03-18T12:35:19.512Z,14.00
2019-03-18T12:37:48.132Z,14.10
2019-03-18T12:40:17.473Z,14.20
2019-03-18T12:42:46.551Z,13.90
2019-03-18T12:45:17.544Z,13.90
2019-03-18T12:47:46.013Z,13.10
2019-03-18T12:50:38.622Z,12.30
2019-03-18T12:52:53.240Z,11.80
2019-03-18T12:55:21.824Z,11.70
2019-03-18T12:57:50.317Z,12.50
2019-03-18T13:00:23.885Z,12.90
2019-03-18T13:02:52.623Z,13.20
2019-03-18T13:05:21.582Z,13.60
2019-03-18T13:07:50.146Z,14.00
2019-03-18T13:10:21.781Z,13.60
2019-03-18T13:12:50.460Z,13.20
2019-03-18T13:15:19.845Z,12.60
2019-03-18T13:17:48.411Z,12.50
2019-03-18T13:20:18.054Z,12.20
2019-03-18T13:22:46.905Z,11.70
2019-03-18T13:25:15.365Z,11.60
2019-03-18T13:27:43.999Z,11.50
2019-03-18T13:30:15.522Z,11.20
2019-03-18T13:32:44.674Z,11.30
2019-03-18T13:35:13.780Z,11.20
2019-03-18T13:37:42.756Z,11.30
2019-03-18T13:40:15.762Z,11.10
2019-03-18T13:42:44.823Z,11.20
2019-03-18T13:45:23.289Z,10.90
2019-03-18T13:47:51.779Z,10.80
2019-03-18T13:50:23.758Z,10.90
2019-03-18T13:52:52.208Z,11.00
2019-03-18T13:55:20.708Z,10.80
2019-03-18T13:57:49.205Z,10.80
2019-03-18T14:00:21.896Z,10.90
2019-03-18T14:02:50.576Z,11.10
2019-03-18T14:05:19.383Z,11.10
2019-03-18T14:07:59.756Z,11.10
2019-03-18T14:10:22.799Z,11.40
2019-03-18T14:12:51.682Z,11.70
2019-03-18T14:15:26.315Z,11.90
2019-03-18T14:17:54.806Z,12.00
2019-03-18T14:20:24.881Z,12.00
2019-03-18T14:22:53.895Z,11.90
2019-03-18T14:25:22.571Z,11.40
2019-03-18T14:27:51.101Z,11.00
2019-03-18T14:30:21.787Z,10.80
2019-03-18T14:32:50.339Z,10.60
2019-03-18T14:35:21.617Z,10.30
2019-03-18T14:37:49.161Z,10.40
2019-03-18T14:40:21.788Z,10.40
2019-03-18T14:42:50.249Z,10.30
2019-03-18T14:45:20.110Z,10.40
2019-03-18T14:47:50.104Z,10.60
2019-03-18T14:50:20.254Z,11.00
2019-03-18T14:52:48.888Z,11.40
2019-03-18T14:55:18.376Z,11.60
2019-03-18T14:57:47.481Z,11.60
2019-03-18T15:00:27.919Z,11.10
2019-03-18T15:02:56.535Z,10.90
2019-03-18T15:05:25.248Z,10.80
2019-03-18T15:07:53.745Z,10.60
2019-03-18T15:10:23.879Z,10.50
2019-03-18T15:12:52.432Z,10.70
2019-03-18T15:15:21.020Z,10.90
2019-03-18T15:17:49.545Z,10.90
2019-03-18T15:20:25.576Z,10.90
2019-03-18T15:22:54.063Z,10.90
2019-03-18T15:25:24.918Z,10.90
2019-03-18T15:27:53.496Z,10.70
2019-03-18T15:30:22.035Z,10.70
2019-03-18T15:32:50.589Z,10.70
2019-03-18T15:35:19.248Z,10.70
2019-03-18T15:37:47.736Z,10.80
2019-03-18T15:40:23.680Z,10.70
2019-03-18T15:42:52.159Z,10.70
2019-03-18T15:45:22.081Z,10.60
2019-03-18T15:47:50.666Z,10.60
2019-03-18T15:50:24.024Z,10.60
2019-03-18T15:52:52.535Z,10.60
2019-03-18T15:55:23.850Z,10.70
2019-03-18T15:57:51.319Z,10.70
2019-03-18T16:00:33.016Z,10.90
2019-03-18T16:03:01.621Z,10.80
2019-03-18T16:05:30.091Z,10.90
2019-03-18T16:07:58.584Z,10.80
2019-03-18T16:10:27.135Z,10.80
2019-03-18T16:12:55.728Z,10.60
2019-03-18T16:15:24.227Z,10.40
2019-03-18T16:17:52.782Z,10.40
2019-03-18T16:20:24.315Z,10.50
2019-03-18T16:22:52.917Z,10.60
2019-03-18T16:25:21.619Z,10.50
2019-03-18T16:27:50.139Z,10.30
2019-03-18T16:30:22.340Z,10.30
2019-03-18T16:32:50.887Z,10.10
2019-03-18T16:35:19.357Z,10.10
2019-03-18T16:37:47.909Z,10.10
2019-03-18T16:40:18.599Z,10.00
2019-03-18T16:42:47.073Z,10.00
2019-03-18T16:45:19.501Z,9.90
2019-03-18T16:47:48.108Z,9.90
2019-03-18T16:50:30.872Z,9.70
2019-03-18T16:52:59.576Z,9.70
2019-03-18T16:55:28.028Z,9.60
2019-03-18T16:57:56.509Z,9.60
2019-03-18T17:00:26.233Z,9.60
2019-03-18T17:02:54.772Z,9.60
2019-03-18T17:05:23.286Z,9.40
2019-03-18T17:07:54.257Z,9.40
2019-03-18T17:10:22.106Z,9.40
2019-03-18T17:12:52.364Z,9.30
2019-03-18T17:15:22.063Z,9.20
2019-03-18T17:17:50.695Z,9.10
2019-03-18T17:20:21.008Z,9.10
2019-03-18T17:22:50.397Z,9.00
2019-03-18T17:25:21.734Z,8.90
2019-03-18T17:27:50.254Z,8.80
2019-03-18T17:30:20.788Z,8.70
2019-03-18T17:32:49.260Z,8.80
2019-03-18T17:35:17.743Z,8.70
2019-03-18T17:37:46.261Z,8.60
2019-03-18T17:40:21.041Z,8.60
2019-03-18T17:42:49.551Z,8.60
2019-03-18T17:45:18.641Z,8.50
2019-03-18T17:48:06.472Z,8.50
2019-03-18T17:50:35.009Z,8.40
2019-03-18T17:53:04.249Z,8.40
2019-03-18T17:55:32.891Z,8.30
2019-03-18T17:58:01.424Z,8.20
2019-03-18T18:00:32.674Z,8.10
2019-03-18T18:03:01.444Z,8.10
2019-03-18T18:05:29.925Z,8.10
2019-03-18T18:07:58.393Z,8.00
2019-03-18T18:10:26.957Z,7.90
2019-03-18T18:12:55.567Z,7.90
2019-03-18T18:15:24.031Z,7.90
2019-03-18T18:17:52.512Z,7.90
2019-03-18T18:20:20.995Z,7.90
2019-03-18T18:22:49.529Z,7.80
2019-03-18T18:25:18.016Z,7.80
2019-03-18T18:27:46.681Z,7.70
2019-03-18T18:30:17.248Z,7.60
2019-03-18T18:32:45.788Z,7.70
2019-03-18T18:35:14.484Z,7.60
2019-03-18T18:37:42.950Z,7.40
2019-03-18T18:40:17.197Z,7.40
2019-03-18T18:42:45.771Z,7.40
2019-03-18T18:45:14.736Z,7.30
2019-03-18T18:47:43.201Z,7.30
2019-03-18T18:50:12.787Z,7.30
2019-03-18T18:52:41.248Z,7.20
2019-03-18T18:55:11.700Z,7.20
2019-03-18T18:57:40.277Z,7.10
2019-03-18T19:00:14.332Z,7.10
2019-03-18T19:02:42.868Z,7.00
2019-03-18T19:05:13.478Z,6.90
2019-03-18T19:07:42.117Z,6.80
2019-03-18T19:10:19.052Z,6.80
2019-03-18T19:12:47.560Z,6.70
2019-03-18T19:15:23.512Z,6.60
2019-03-18T19:17:52.042Z,6.50
2019-03-18T19:20:20.631Z,6.50
2019-03-18T19:22:49.116Z,6.50
2019-03-18T19:25:18.067Z,6.50
2019-03-18T19:27:46.536Z,6.40
2019-03-18T19:30:22.768Z,6.30
2019-03-18T19:32:51.352Z,6.20
2019-03-18T19:35:19.883Z,6.20
2019-03-18T19:37:48.465Z,6.20
2019-03-18T19:40:18.796Z,6.20
2019-03-18T19:42:47.264Z,6.10
2019-03-18T19:45:15.723Z,6.10
2019-03-18T19:47:44.318Z,5.90
2019-03-18T19:50:27.687Z,5.80
2019-03-18T19:52:56.142Z,5.80
2019-03-18T19:55:24.609Z,5.70
2019-03-18T19:57:53.163Z,5.70
2019-03-18T20:00:26.973Z,5.70
2019-03-18T20:02:55.535Z,5.60
2019-03-18T20:05:24.089Z,5.60
2019-03-18T20:07:52.608Z,5.50
2019-03-18T20:10:22.024Z,5.50
2019-03-18T20:12:50.482Z,5.40
2019-03-18T20:15:19.877Z,5.40
2019-03-18T20:17:48.374Z,5.40
2019-03-18T20:20:19.910Z,5.30
2019-03-18T20:22:48.356Z,5.20
2019-03-18T20:25:16.845Z,5.10
2019-03-18T20:27:45.325Z,5.00
2019-03-18T20:30:15.962Z,4.80
2019-03-18T20:32:44.508Z,4.70
2019-03-18T20:35:18.215Z,4.60
2019-03-18T20:37:46.744Z,4.50
2019-03-18T20:40:34.569Z,4.50
2019-03-18T20:43:03.087Z,4.50
2019-03-18T20:45:31.535Z,4.50
2019-03-18T20:48:00.153Z,4.50
2019-03-18T20:50:28.603Z,4.60
2019-03-18T20:52:57.060Z,4.40
2019-03-18T20:55:25.556Z,4.40
2019-03-18T20:57:54.000Z,4.30
2019-03-18T21:00:25.507Z,4.30
2019-03-18T21:02:54.014Z,4.30
2019-03-18T21:05:24.963Z,4.30
2019-03-18T21:07:52.784Z,4.20
2019-03-18T21:10:21.647Z,4.20
2019-03-18T21:12:50.388Z,4.20
2019-03-18T21:15:19.063Z,4.10
2019-03-18T21:17:49.180Z,4.10
2019-03-18T21:20:21.349Z,4.00
2019-03-18T21:22:49.881Z,4.10
2019-03-18T21:25:18.421Z,4.20
2019-03-18T21:27:46.973Z,4.20
2019-03-18T21:30:17.356Z,4.10
2019-03-18T21:32:45.840Z,4.10
2019-03-18T21:35:14.356Z,4.00
2019-03-18T21:37:42.813Z,3.80
2019-03-18T21:40:20.915Z,3.60
2019-03-18T21:42:49.484Z,3.70
2019-03-18T21:45:23.533Z,3.70
2019-03-18T21:47:52.029Z,3.80
2019-03-18T21:50:20.720Z,3.80
2019-03-18T21:52:49.264Z,3.80
2019-03-18T21:55:18.710Z,3.70
2019-03-18T21:57:47.260Z,3.60
2019-03-18T22:00:17.337Z,3.40
2019-03-18T22:02:45.921Z,3.50
2019-03-18T22:05:14.839Z,3.50
2019-03-18T22:07:43.460Z,3.60
2019-03-18T22:10:16.426Z,3.50
2019-03-18T22:12:46.141Z,3.50
2019-03-18T22:15:16.028Z,3.50
2019-03-18T22:17:44.536Z,3.40
2019-03-18T22:20:20.906Z,3.40
2019-03-18T22:22:49.389Z,3.40
2019-03-18T22:25:17.917Z,3.40
2019-03-18T22:27:46.454Z,3.30
2019-03-18T22:30:16.599Z,3.20
2019-03-18T22:32:45.058Z,3.20
2019-03-18T22:35:13.739Z,3.00
2019-03-18T22:37:42.637Z,3.00
2019-03-18T22:40:13.723Z,2.80
2019-03-18T22:42:42.179Z,2.90
2019-03-18T22:45:12.635Z,3.00
2019-03-18T22:47:41.164Z,3.00
2019-03-18T22:50:11.155Z,3.00
2019-03-18T22:52:39.662Z,2.90
2019-03-18T22:55:10.376Z,3.00
2019-03-18T22:57:39.768Z,3.00
2019-03-18T23:00:23.057Z,3.00
2019-03-18T23:02:51.672Z,2.90
2019-03-18T23:05:20.277Z,2.90
2019-03-18T23:07:48.748Z,2.80
2019-03-18T23:10:17.311Z,2.80
2019-03-18T23:12:45.769Z,2.80
2019-03-18T23:15:14.361Z,2.80
2019-03-18T23:17:42.907Z,2.80
2019-03-18T23:20:11.520Z,2.90
2019-03-18T23:22:40.092Z,2.90
2019-03-18T23:25:09.241Z,2.90
2019-03-18T23:27:37.703Z,2.90
2019-03-18T23:30:15.982Z,2.80
2019-03-18T23:32:44.444Z,2.60
2019-03-18T23:35:12.961Z,2.60
2019-03-18T23:37:41.456Z,2.60
2019-03-18T23:40:11.948Z,2.50
2019-03-18T23:42:40.472Z,2.50
2019-03-18T23:45:10.295Z,2.40
2019-03-18T23:47:38.760Z,2.30
2019-03-18T23:50:12.883Z,2.30
2019-03-18T23:52:41.332Z,2.40
2019-03-18T23:55:19.070Z,2.50
2019-03-18T23:57:40.608Z,2.50
